Time,TemperatureF,DewpointF,PressureIn,WindDirection,WindDirectionDegrees,WindSpeedMPH,WindSpeedGustMPH,Humidity,HourlyPrecipIn,Conditions,Clouds,dailyrainin,SoftwareType,DateUTC
2013-08-13 00:01:00,58.5,47.2,0.00,NNW,348,0.0,0.0,66,0.00,,---,0.00,VWS V14.01,2013-08-13 04:01:00,
2013-08-13 00:06:00,58.5,47.6,0.00,NNW,348,0.0,0.0,67,0.00,,---,0.00,VWS V14.01,2013-08-13 04:06:00,
2013-08-13 00:11:00,58.5,47.6,0.00,NNW,348,0.0,0.0,67,0.00,,---,0.00,VWS V14.01,2013-08-13 04:11:00,
2013-08-13 00:16:00,58.6,47.7,0.00,NNW,348,0.0,0.0,67,0.00,,---,0.00,VWS V14.01,2013-08-13 04:16:00,
2013-08-13 00:21:00,58.6,48.1,0.00,NNW,348,0.0,0.0,68,0.00,,---,0.00,VWS V14.01,2013-08-13 04:21:00,
2013-08-13 00:26:00,58.6,48.1,0.00,NNW,348,0.0,0.0,68,0.00,,---,0.00,VWS V14.01,2013-08-13 04:26:00,
2013-08-13 00:31:00,58.6,48.1,0.00,NNW,348,0.0,0.0,68,0.00,,---,0.00,VWS V14.01,2013-08-13 04:31:00,
2013-08-13 00:36:00,58.6,48.1,0.00,NNW,348,0.0,0.0,68,0.00,,---,0.00,VWS V14.01,2013-08-13 04:36:00,
2013-08-13 00:41:00,58.6,48.1,0.00,NNW,348,0.0,0.0,68,0.00,,---,0.00,VWS V14.01,2013-08-13 04:41:00,
2013-08-13 00:46:00,58.6,48.1,0.00,NNW,348,0.0,0.0,68,0.00,,---,0.00,VWS V14.01,2013-08-13 04:46:00,
2013-08-13 00:51:00,58.6,48.1,0.00,NNW,348,0.0,0.0,68,0.00,,---,0.00,VWS V14.01,2013-08-13 04:51:00,
2013-08-13 00:56:00,58.6,48.1,0.00,NNW,348,0.0,0.0,68,0.00,,---,0.00,VWS V14.01,2013-08-13 04:56:00,
2013-08-13 01:01:00,58.6,48.1,0.00,NNW,348,0.0,0.0,68,0.00,,---,0.00,VWS V14.01,2013-08-13 05:01:00,
2013-08-13 01:06:00,58.6,48.5,0.00,NNW,348,0.0,0.0,69,0.00,,---,0.00,VWS V14.01,2013-08-13 05:06:00,
2013-08-13 01:11:00,58.8,48.7,0.00,NNW,348,0.0,0.0,69,0.00,,---,0.00,VWS V14.01,2013-08-13 05:11:00,
2013-08-13 01:16:00,58.8,48.7,0.00,NNW,348,0.0,0.0,69,0.00,,---,0.00,VWS V14.01,2013-08-13 05:16:00,
2013-08-13 01:21:00,58.8,48.7,0.00,NNW,348,0.0,0.0,69,0.00,,---,0.00,VWS V14.01,2013-08-13 05:21:00,
2013-08-13 01:26:00,58.8,48.7,0.00,NNW,348,0.0,0.0,69,0.00,,---,0.00,VWS V14.01,2013-08-13 05:26:00,
2013-08-13 01:31:00,58.8,48.7,0.00,NNW,348,0.0,0.0,69,0.00,,---,0.00,VWS V14.01,2013-08-13 05:31:00,
2013-08-13 01:36:00,58.8,49.1,0.00,NNW,348,0.0,0.0,70,0.00,,---,0.00,VWS V14.01,2013-08-13 05:36:00,
2013-08-13 01:41:00,59.0,49.2,0.00,NNW,348,0.0,0.0,70,0.00,,---,0.00,VWS V14.01,2013-08-13 05:41:00,
2013-08-13 01:46:00,59.0,49.2,0.00,NNW,348,0.0,0.0,70,0.00,,---,0.00,VWS V14.01,2013-08-13 05:46:00,
2013-08-13 01:51:00,59.0,49.2,0.00,NNW,348,0.0,0.0,70,0.00,,---,0.00,VWS V14.01,2013-08-13 05:51:00,
2013-08-13 01:56:00,59.0,49.2,0.00,NNW,348,0.0,0.0,70,0.00,,---,0.00,VWS V14.01,2013-08-13 05:56:00,
2013-08-13 02:01:00,59.0,49.2,0.00,NNW,348,0.0,0.0,70,0.00,,---,0.00,VWS V14.01,2013-08-13 06:01:00,
2013-08-13 02:06:00,59.2,49.4,0.00,NNW,348,0.0,0.0,70,0.00,,---,0.00,VWS V14.01,2013-08-13 06:06:00,
2013-08-13 02:11:00,59.2,49.4,0.00,NNW,348,0.0,0.0,70,0.00,,---,0.00,VWS V14.01,2013-08-13 06:11:00,
2013-08-13 02:16:00,59.2,49.4,0.00,NNW,348,0.0,0.0,70,0.00,,---,0.00,VWS V14.01,2013-08-13 06:16:00,
2013-08-13 02:21:00,59.2,49.4,0.00,NNW,348,0.0,0.0,70,0.00,,---,0.00,VWS V14.01,2013-08-13 06:21:00,
2013-08-13 02:26:00,59.2,49.4,0.00,NNW,348,0.0,0.0,70,0.00,,---,0.00,VWS V14.01,2013-08-13 06:26:00,
2013-08-13 02:31:00,59.2,49.4,0.00,NNW,348,0.0,0.0,70,0.00,,---,0.00,VWS V14.01,2013-08-13 06:31:00,
2013-08-13 02:36:00,59.2,49.4,0.00,NNW,348,0.0,0.0,70,0.00,,---,0.00,VWS V14.01,2013-08-13 06:36:00,
2013-08-13 02:41:00,59.2,49.8,0.00,NNW,348,0.0,0.0,71,0.00,,---,0.00,VWS V14.01,2013-08-13 06:41:00,
2013-08-13 02:46:00,59.2,49.8,0.00,NNW,348,0.0,0.0,71,0.00,,---,0.00,VWS V14.01,2013-08-13 06:46:00,
2013-08-13 02:51:00,59.2,49.8,0.00,NNW,348,0.0,0.0,71,0.00,,---,0.00,VWS V14.01,2013-08-13 06:51:00,
2013-08-13 02:56:00,59.2,49.8,0.00,NNW,348,0.0,0.0,71,0.00,,---,0.00,VWS V14.01,2013-08-13 06:56:00,
2013-08-13 03:01:00,59.2,49.8,0.00,NNW,348,0.0,0.0,71,0.00,,---,0.00,VWS V14.01,2013-08-13 07:01:00,
2013-08-13 03:06:00,59.2,49.8,0.00,NNW,348,0.0,0.0,71,0.00,,---,0.00,VWS V14.01,2013-08-13 07:06:00,
2013-08-13 03:11:00,59.0,49.6,0.00,NNW,348,0.0,0.0,71,0.00,,---,0.00,VWS V14.01,2013-08-13 07:11:00,
2013-08-13 03:16:00,58.8,49.5,0.00,NNW,348,0.0,0.0,71,0.00,,---,0.00,VWS V14.01,2013-08-13 07:16:00,
2013-08-13 03:21:00,58.8,49.5,0.00,NNW,348,0.0,0.0,71,0.00,,---,0.00,VWS V14.01,2013-08-13 07:21:00,
2013-08-13 03:26:00,58.8,49.5,0.00,NNW,348,0.0,0.0,71,0.00,,---,0.00,VWS V14.01,2013-08-13 07:26:00,
2013-08-13 03:31:00,58.5,49.1,0.00,NNW,348,0.0,0.0,71,0.00,,---,0.00,VWS V14.01,2013-08-13 07:31:00,
2013-08-13 03:36:00,58.3,48.9,0.00,NNW,348,0.0,0.0,71,0.00,,---,0.00,VWS V14.01,2013-08-13 07:36:00,
2013-08-13 03:41:00,58.1,48.8,0.00,NNW,348,0.0,0.0,71,0.00,,---,0.00,VWS V14.01,2013-08-13 07:41:00,
2013-08-13 03:46:00,58.3,49.3,0.00,NNW,348,0.0,0.0,72,0.00,,---,0.00,VWS V14.01,2013-08-13 07:46:00,
2013-08-13 03:51:00,58.3,49.3,0.00,NNW,348,0.0,0.0,72,0.00,,---,0.00,VWS V14.01,2013-08-13 07:51:00,
2013-08-13 03:56:00,58.3,49.3,0.00,NNW,348,0.0,0.0,72,0.00,,---,0.00,VWS V14.01,2013-08-13 07:56:00,
2013-08-13 04:01:00,58.3,49.3,0.00,NNW,348,0.0,0.0,72,0.00,,---,0.00,VWS V14.01,2013-08-13 08:01:00,
2013-08-13 04:06:00,58.1,49.1,0.00,NNW,348,0.0,0.0,72,0.00,,---,0.00,VWS V14.01,2013-08-13 08:06:00,
2013-08-13 04:11:00,58.1,49.1,0.00,NNW,348,0.0,0.0,72,0.00,,---,0.00,VWS V14.01,2013-08-13 08:11:00,
2013-08-13 04:16:00,58.1,49.1,0.00,NNW,348,0.0,0.0,72,0.00,,---,0.00,VWS V14.01,2013-08-13 08:16:00,
2013-08-13 04:21:00,57.9,49.0,0.00,NNW,348,0.0,0.0,72,0.00,,---,0.00,VWS V14.01,2013-08-13 08:21:00,
2013-08-13 04:26:00,57.9,49.0,0.00,NNW,348,0.0,0.0,72,0.00,,---,0.00,VWS V14.01,2013-08-13 08:26:00,
2013-08-13 04:31:00,57.9,49.0,0.00,NNW,348,0.0,0.0,72,0.00,,---,0.00,VWS V14.01,2013-08-13 08:31:00,
2013-08-13 04:36:00,57.9,49.0,0.00,NNW,348,0.0,0.0,72,0.00,,---,0.00,VWS V14.01,2013-08-13 08:36:00,
2013-08-13 04:41:00,57.9,49.3,0.00,NNW,348,0.0,0.0,73,0.00,,---,0.00,VWS V14.01,2013-08-13 08:41:00,
2013-08-13 04:46:00,57.9,49.3,0.00,NNW,348,0.0,0.0,73,0.00,,---,0.00,VWS V14.01,2013-08-13 08:46:00,
2013-08-13 04:51:00,57.9,49.3,0.00,NNW,348,0.0,0.0,73,0.00,,---,0.00,VWS V14.01,2013-08-13 08:51:00,
2013-08-13 04:56:00,57.9,49.3,0.00,NNW,348,0.0,0.0,73,0.00,,---,0.00,VWS V14.01,2013-08-13 08:56:00,
2013-08-13 05:01:00,57.9,49.3,0.00,NNW,348,0.0,0.0,73,0.00,,---,0.00,VWS V14.01,2013-08-13 09:01:00,
2013-08-13 05:06:00,57.9,49.3,0.00,NNW,348,0.0,0.0,73,0.00,,---,0.00,VWS V14.01,2013-08-13 09:06:00,
2013-08-13 05:11:00,57.9,49.3,0.00,NNW,348,0.0,0.0,73,0.00,,---,0.00,VWS V14.01,2013-08-13 09:11:00,
2013-08-13 05:16:00,57.9,49.3,0.00,NNW,348,0.0,0.0,73,0.00,,---,0.00,VWS V14.01,2013-08-13 09:16:00,
2013-08-13 05:21:00,57.9,49.3,0.00,NNW,348,0.0,0.0,73,0.00,,---,0.00,VWS V14.01,2013-08-13 09:21:00,
2013-08-13 05:26:00,57.9,49.3,0.00,NNW,348,0.0,0.0,73,0.00,,---,0.00,VWS V14.01,2013-08-13 09:26:00,
2013-08-13 05:31:00,57.9,49.3,0.00,NNW,348,0.0,0.0,73,0.00,,---,0.00,VWS V14.01,2013-08-13 09:31:00,
2013-08-13 05:36:00,57.9,49.3,0.00,NNW,348,0.0,0.0,73,0.00,,---,0.00,VWS V14.01,2013-08-13 09:36:00,
2013-08-13 05:41:00,57.9,49.3,0.00,NNW,348,0.0,0.0,73,0.00,,---,0.00,VWS V14.01,2013-08-13 09:41:00,
2013-08-13 05:46:00,58.1,49.9,0.00,NNW,348,0.0,0.0,74,0.00,,---,0.00,VWS V14.01,2013-08-13 09:46:00,
2013-08-13 05:51:00,58.1,49.9,0.00,NNW,348,0.0,0.0,74,0.00,,---,0.00,VWS V14.01,2013-08-13 09:51:00,
2013-08-13 05:56:00,58.1,49.9,0.00,NNW,348,0.0,0.0,74,0.00,,---,0.00,VWS V14.01,2013-08-13 09:56:00,
2013-08-13 06:01:00,58.1,49.9,0.00,NNW,348,0.0,0.0,74,0.00,,---,0.00,VWS V14.01,2013-08-13 10:01:00,
2013-08-13 06:06:00,58.1,49.9,0.00,NNW,348,0.0,0.0,74,0.00,,---,0.00,VWS V14.01,2013-08-13 10:06:00,
2013-08-13 06:11:00,58.3,50.0,0.00,NNW,348,0.0,0.0,74,0.00,,---,0.00,VWS V14.01,2013-08-13 10:11:00,
2013-08-13 06:16:00,58.3,50.0,0.00,NNW,348,0.0,0.0,74,0.00,,---,0.00,VWS V14.01,2013-08-13 10:16:00,
2013-08-13 06:21:00,58.5,50.2,0.00,NNW,348,0.0,0.0,74,0.00,,---,0.00,VWS V14.01,2013-08-13 10:21:00,
2013-08-13 06:26:00,58.5,50.2,0.00,NNW,348,0.0,0.0,74,0.00,,---,0.00,VWS V14.01,2013-08-13 10:26:00,
2013-08-13 06:31:00,58.5,50.2,0.00,NNW,348,0.0,0.0,74,0.00,,---,0.00,VWS V14.01,2013-08-13 10:31:00,
2013-08-13 06:36:00,58.6,50.4,0.00,NNW,348,0.0,0.0,74,0.00,,---,0.00,VWS V14.01,2013-08-13 10:36:00,
2013-08-13 06:41:00,58.6,50.8,0.00,NNW,348,0.0,0.0,75,0.00,,---,0.00,VWS V14.01,2013-08-13 10:41:00,
2013-08-13 06:46:00,58.6,50.8,0.00,NNW,348,0.0,0.0,75,0.00,,---,0.00,VWS V14.01,2013-08-13 10:46:00,
2013-08-13 06:51:00,58.8,50.9,0.00,NNW,348,0.0,0.0,75,0.00,,---,0.00,VWS V14.01,2013-08-13 10:51:00,
2013-08-13 06:56:00,59.2,51.3,0.00,NNW,348,0.0,0.0,75,0.00,,---,0.00,VWS V14.01,2013-08-13 10:56:00,
2013-08-13 07:01:00,59.2,51.3,0.00,NNW,348,0.0,0.0,75,0.00,,---,0.00,VWS V14.01,2013-08-13 11:01:00,
2013-08-13 07:06:00,59.4,51.5,0.00,NNW,348,0.0,0.0,75,0.00,,---,0.00,VWS V14.01,2013-08-13 11:06:00,
2013-08-13 07:11:00,59.4,51.5,0.00,NNW,348,0.0,0.0,75,0.00,,---,0.00,VWS V14.01,2013-08-13 11:11:00,
2013-08-13 07:16:00,59.4,51.5,0.00,NNW,348,0.0,0.0,75,0.00,,---,0.00,VWS V14.01,2013-08-13 11:16:00,
2013-08-13 07:21:00,59.7,52.2,0.00,NNW,348,0.0,0.0,76,0.00,,---,0.00,VWS V14.01,2013-08-13 11:21:00,
2013-08-13 07:26:00,59.7,52.2,0.00,NNW,348,0.0,0.0,76,0.00,,---,0.00,VWS V14.01,2013-08-13 11:26:00,
2013-08-13 07:31:00,59.7,52.2,0.00,NNW,348,0.0,0.0,76,0.00,,---,0.00,VWS V14.01,2013-08-13 11:31:00,
2013-08-13 07:36:00,59.7,52.2,0.00,NNW,348,0.0,0.0,76,0.00,,---,0.00,VWS V14.01,2013-08-13 11:36:00,
2013-08-13 07:41:00,60.1,52.9,0.00,NNW,348,0.0,0.0,77,0.00,,---,0.00,VWS V14.01,2013-08-13 11:41:00,
2013-08-13 07:46:00,60.1,52.9,0.00,NNW,348,0.0,0.0,77,0.00,,---,0.00,VWS V14.01,2013-08-13 11:46:00,
2013-08-13 07:51:00,60.3,53.0,0.00,NNW,348,0.0,0.0,77,0.00,,---,0.00,VWS V14.01,2013-08-13 11:51:00,
2013-08-13 07:56:00,60.3,53.0,0.00,NNW,348,0.0,0.0,77,0.00,,---,0.00,VWS V14.01,2013-08-13 11:56:00,
2013-08-13 08:01:00,60.3,53.0,0.00,NNW,348,0.0,0.0,77,0.00,,---,0.00,VWS V14.01,2013-08-13 12:01:00,
2013-08-13 08:06:00,60.8,53.9,0.00,NNW,348,0.0,0.0,78,0.00,,---,0.00,VWS V14.01,2013-08-13 12:06:00,
2013-08-13 08:11:00,60.8,53.9,0.00,NNW,348,0.0,0.0,78,0.00,,---,0.00,VWS V14.01,2013-08-13 12:11:00,
2013-08-13 08:16:00,61.2,54.3,0.00,NNW,348,0.0,0.0,78,0.00,,---,0.00,VWS V14.01,2013-08-13 12:16:00,
2013-08-13 08:21:00,61.2,54.3,0.00,NNW,348,0.0,0.0,78,0.00,,---,0.00,VWS V14.01,2013-08-13 12:21:00,
2013-08-13 08:26:00,61.2,54.3,0.00,NNW,348,0.0,0.0,78,0.00,,---,0.00,VWS V14.01,2013-08-13 12:26:00,
2013-08-13 08:31:00,61.5,55.0,0.00,NNW,348,0.0,0.0,79,0.00,,---,0.00,VWS V14.01,2013-08-13 12:31:00,
2013-08-13 08:36:00,61.5,55.0,0.00,NNW,348,0.0,0.0,79,0.00,,---,0.00,VWS V14.01,2013-08-13 12:36:00,
2013-08-13 08:41:00,61.7,55.5,0.00,NNW,348,0.0,0.0,80,0.00,,---,0.00,VWS V14.01,2013-08-13 12:41:00,
2013-08-13 08:46:00,61.7,55.5,0.00,NNW,348,0.0,0.0,80,0.00,,---,0.00,VWS V14.01,2013-08-13 12:46:00,
2013-08-13 08:51:00,61.7,55.5,0.00,NNW,348,0.0,0.0,80,0.00,,---,0.00,VWS V14.01,2013-08-13 12:51:00,
2013-08-13 08:56:00,61.9,55.7,0.00,NNW,348,0.0,0.0,80,0.00,,---,0.00,VWS V14.01,2013-08-13 12:56:00,
2013-08-13 09:01:00,61.9,55.7,0.00,WNW,285,0.0,0.0,80,0.00,,---,0.00,VWS V14.01,2013-08-13 13:01:00,
2013-08-13 09:06:00,62.2,56.3,0.00,WNW,285,0.0,0.0,81,0.00,,---,0.00,VWS V14.01,2013-08-13 13:06:00,
2013-08-13 09:11:00,62.2,56.3,0.00,WNW,285,0.0,0.0,81,0.00,,---,0.00,VWS V14.01,2013-08-13 13:11:00,
2013-08-13 09:16:00,62.8,56.9,0.00,SSE,163,0.0,0.0,81,0.00,,---,0.00,VWS V14.01,2013-08-13 13:16:00,
2013-08-13 09:21:00,62.8,56.9,0.00,SSE,163,0.0,0.0,81,0.00,,---,0.00,VWS V14.01,2013-08-13 13:21:00,
2013-08-13 09:26:00,63.0,57.0,0.00,SSE,163,0.0,0.0,81,0.00,,---,0.00,VWS V14.01,2013-08-13 13:26:00,
2013-08-13 09:31:00,63.5,57.6,0.00,SE,138,2.7,2.7,81,0.00,,---,0.00,VWS V14.01,2013-08-13 13:31:00,
2013-08-13 09:36:00,63.5,57.6,0.00,SE,139,0.0,0.0,81,0.00,,---,0.00,VWS V14.01,2013-08-13 13:36:00,
2013-08-13 09:41:00,63.7,57.8,0.00,SE,139,0.0,0.0,81,0.00,,---,0.00,VWS V14.01,2013-08-13 13:41:00,
2013-08-13 09:46:00,63.7,57.8,0.00,SSE,151,0.0,0.0,81,0.00,,---,0.00,VWS V14.01,2013-08-13 13:46:00,
2013-08-13 09:51:00,63.7,57.8,0.00,SSE,151,0.0,0.0,81,0.00,,---,0.00,VWS V14.01,2013-08-13 13:51:00,
2013-08-13 09:56:00,63.7,57.8,0.00,SE,129,0.0,0.0,81,0.00,,---,0.00,VWS V14.01,2013-08-13 13:56:00,
2013-08-13 10:01:00,64.0,58.4,0.00,SE,129,0.0,0.0,82,0.00,,---,0.00,VWS V14.01,2013-08-13 14:01:00,
2013-08-13 10:06:00,64.2,58.6,0.00,SE,129,0.0,0.0,82,0.00,,---,0.00,VWS V14.01,2013-08-13 14:06:00,
2013-08-13 10:11:00,64.2,58.6,0.00,South,184,0.0,0.0,82,0.00,,---,0.00,VWS V14.01,2013-08-13 14:11:00,
2013-08-13 10:16:00,64.2,58.6,0.00,South,184,0.0,0.0,82,0.00,,---,0.00,VWS V14.01,2013-08-13 14:16:00,
2013-08-13 10:21:00,64.2,58.6,0.00,South,184,0.0,0.0,82,0.00,,---,0.00,VWS V14.01,2013-08-13 14:21:00,
2013-08-13 10:26:00,64.4,58.5,0.00,South,184,0.0,0.0,81,0.00,,---,0.00,VWS V14.01,2013-08-13 14:26:00,
2013-08-13 10:31:00,64.6,58.6,0.00,South,184,0.0,0.0,81,0.00,,---,0.00,VWS V14.01,2013-08-13 14:31:00,
2013-08-13 10:36:00,64.6,58.6,0.00,South,184,0.0,0.0,81,0.00,,---,0.00,VWS V14.01,2013-08-13 14:36:00,
2013-08-13 10:41:00,64.6,58.6,0.00,South,184,0.0,0.0,81,0.00,,---,0.00,VWS V14.01,2013-08-13 14:41:00,
2013-08-13 10:46:00,64.6,58.6,0.00,South,184,0.0,0.0,81,0.00,,---,0.00,VWS V14.01,2013-08-13 14:46:00,
2013-08-13 10:51:00,64.9,59.0,0.00,South,184,0.0,0.0,81,0.00,,---,0.00,VWS V14.01,2013-08-13 14:51:00,
2013-08-13 10:56:00,65.1,59.2,0.00,South,184,0.0,0.0,81,0.00,,---,0.00,VWS V14.01,2013-08-13 14:56:00,
2013-08-13 11:01:00,65.1,59.2,0.00,South,184,0.0,0.0,81,0.00,,---,0.00,VWS V14.01,2013-08-13 15:01:00,
2013-08-13 11:06:00,65.1,59.2,0.00,South,184,0.0,0.0,81,0.00,,---,0.00,VWS V14.01,2013-08-13 15:06:00,
2013-08-13 11:11:00,65.1,59.2,0.00,South,184,0.0,0.0,81,0.00,,---,0.00,VWS V14.01,2013-08-13 15:11:00,
2013-08-13 11:16:00,65.1,59.2,0.00,South,184,0.0,0.0,81,0.00,,---,0.00,VWS V14.01,2013-08-13 15:16:00,
2013-08-13 11:21:00,65.8,59.8,0.00,South,184,0.0,0.0,81,0.00,,---,0.00,VWS V14.01,2013-08-13 15:21:00,
2013-08-13 11:26:00,65.8,59.8,0.00,South,184,0.0,0.0,81,0.00,,---,0.00,VWS V14.01,2013-08-13 15:26:00,
2013-08-13 11:31:00,66.2,59.9,0.00,South,184,0.0,0.0,80,0.00,,---,0.00,VWS V14.01,2013-08-13 15:31:00,
2013-08-13 11:36:00,66.6,60.2,0.00,South,184,0.0,0.0,80,0.00,,---,0.00,VWS V14.01,2013-08-13 15:36:00,
2013-08-13 11:41:00,66.9,60.6,0.00,South,184,0.0,0.0,80,0.00,,---,0.00,VWS V14.01,2013-08-13 15:41:00,
2013-08-13 11:46:00,66.9,60.6,0.00,SE,128,0.0,0.0,80,0.00,,---,0.00,VWS V14.01,2013-08-13 15:46:00,
2013-08-13 11:51:00,67.3,59.8,0.00,WSW,237,3.1,3.1,77,0.00,,---,0.00,VWS V14.01,2013-08-13 15:51:00,
2013-08-13 11:56:00,67.5,58.9,0.00,WSW,237,3.1,3.1,74,0.00,,---,0.00,VWS V14.01,2013-08-13 15:56:00,
2013-08-13 12:01:00,67.5,58.9,0.00,SSE,156,4.0,4.0,74,0.00,,---,0.00,VWS V14.01,2013-08-13 16:01:00,
2013-08-13 12:06:00,67.5,58.9,0.00,East,93,3.1,3.1,74,0.00,,---,0.00,VWS V14.01,2013-08-13 16:06:00,
2013-08-13 12:11:00,67.5,58.9,0.00,ESE,113,0.0,0.0,74,0.00,,---,0.00,VWS V14.01,2013-08-13 16:11:00,
2013-08-13 12:16:00,67.5,57.0,0.00,ESE,113,0.0,0.0,69,0.00,,---,0.00,VWS V14.01,2013-08-13 16:16:00,
2013-08-13 12:21:00,67.5,57.0,0.00,ESE,113,0.0,0.0,69,0.00,,---,0.00,VWS V14.01,2013-08-13 16:21:00,
2013-08-13 12:26:00,68.0,56.2,0.00,WSW,247,0.0,0.0,66,0.00,,---,0.00,VWS V14.01,2013-08-13 16:26:00,
2013-08-13 12:31:00,68.0,56.2,0.00,SSE,168,3.1,3.1,66,0.00,,---,0.00,VWS V14.01,2013-08-13 16:31:00,
2013-08-13 12:36:00,68.0,56.2,0.00,SSE,168,3.1,3.1,66,0.00,,---,0.00,VWS V14.01,2013-08-13 16:36:00,
2013-08-13 12:41:00,68.7,53.4,0.00,WSW,251,0.0,0.0,58,0.00,,---,0.00,VWS V14.01,2013-08-13 16:41:00,
2013-08-13 12:46:00,68.5,53.2,0.00,SE,138,0.0,0.0,58,0.00,,---,0.00,VWS V14.01,2013-08-13 16:46:00,
2013-08-13 12:51:00,68.4,52.1,0.00,SE,138,0.0,0.0,56,0.00,,---,0.00,VWS V14.01,2013-08-13 16:51:00,
2013-08-13 12:56:00,68.2,51.9,0.00,SE,128,0.0,0.0,56,0.00,,---,0.00,VWS V14.01,2013-08-13 16:56:00,
2013-08-13 13:01:00,68.2,51.9,0.00,SE,128,0.0,0.0,56,0.00,,---,0.00,VWS V14.01,2013-08-13 17:01:00,
2013-08-13 13:06:00,67.8,52.0,0.00,SE,144,0.0,0.0,57,0.00,,---,0.00,VWS V14.01,2013-08-13 17:06:00,
2013-08-13 13:12:00,67.8,52.0,0.00,SE,144,0.0,0.0,57,0.00,,---,0.00,VWS V14.01,2013-08-13 17:12:00,
2013-08-13 13:17:00,67.6,51.4,0.00,WSW,244,0.0,0.0,56,0.00,,---,0.00,VWS V14.01,2013-08-13 17:17:00,
2013-08-13 13:22:00,67.6,51.4,0.00,South,187,2.7,2.7,56,0.00,,---,0.00,VWS V14.01,2013-08-13 17:22:00,
2013-08-13 13:27:00,66.7,50.1,0.00,WSW,238,2.7,2.7,55,0.00,,---,0.00,VWS V14.01,2013-08-13 17:27:00,
2013-08-13 13:32:00,65.3,50.2,0.00,WSW,238,0.0,0.0,58,0.00,,---,0.00,VWS V14.01,2013-08-13 17:32:00,
2013-08-13 13:37:00,65.3,50.2,0.00,NNW,340,0.0,0.0,58,0.00,,---,0.00,VWS V14.01,2013-08-13 17:37:00,
2013-08-13 13:42:00,64.0,51.2,0.00,NNW,335,0.0,0.0,63,0.08,,---,0.08,VWS V14.01,2013-08-13 17:42:00,
2013-08-13 13:47:00,64.0,51.2,0.00,NNW,335,0.0,0.0,63,0.08,,---,0.08,VWS V14.01,2013-08-13 17:47:00,
2013-08-13 13:52:00,63.9,52.3,0.00,ESE,111,0.0,0.0,66,0.08,,---,0.08,VWS V14.01,2013-08-13 17:52:00,
2013-08-13 13:57:00,63.9,52.7,0.00,ESE,111,0.0,0.0,67,0.16,,---,0.16,VWS V14.01,2013-08-13 17:57:00,
2013-08-13 14:02:00,63.9,52.7,0.00,SSE,148,0.0,0.0,67,0.16,,---,0.16,VWS V14.01,2013-08-13 18:02:00,
2013-08-13 14:07:00,63.9,53.1,0.00,SSE,148,0.0,0.0,68,0.16,,---,0.16,VWS V14.01,2013-08-13 18:07:00,
2013-08-13 14:12:00,63.5,52.8,0.00,SSE,167,0.0,0.0,68,0.16,,---,0.16,VWS V14.01,2013-08-13 18:12:00,
2013-08-13 14:17:00,63.3,53.0,0.00,SSE,167,0.0,0.0,69,0.16,,---,0.16,VWS V14.01,2013-08-13 18:17:00,
2013-08-13 14:22:00,63.1,53.2,0.00,East,88,4.0,4.0,70,0.16,,---,0.16,VWS V14.01,2013-08-13 18:22:00,
2013-08-13 14:27:00,63.1,53.2,0.00,WSW,242,3.6,3.6,70,0.24,,---,0.24,VWS V14.01,2013-08-13 18:27:00,
2013-08-13 14:32:00,63.0,53.4,0.00,West,264,0.0,0.0,71,0.24,,---,0.24,VWS V14.01,2013-08-13 18:32:00,
2013-08-13 14:37:00,63.0,53.4,0.00,West,264,0.0,0.0,71,0.24,,---,0.24,VWS V14.01,2013-08-13 18:37:00,
2013-08-13 14:42:00,63.1,54.0,0.00,South,178,0.0,0.0,72,0.16,,---,0.24,VWS V14.01,2013-08-13 18:42:00,
2013-08-13 14:47:00,63.3,54.2,0.00,South,178,0.0,0.0,72,0.16,,---,0.24,VWS V14.01,2013-08-13 18:47:00,
2013-08-13 14:52:00,63.3,54.2,0.00,South,178,0.0,0.0,72,0.16,,---,0.24,VWS V14.01,2013-08-13 18:52:00,
2013-08-13 14:57:00,63.5,54.3,0.00,South,178,0.0,0.0,72,0.08,,---,0.24,VWS V14.01,2013-08-13 18:57:00,
2013-08-13 15:02:00,63.5,54.7,0.00,South,178,0.0,0.0,73,0.08,,---,0.24,VWS V14.01,2013-08-13 19:02:00,
2013-08-13 15:07:00,63.9,55.0,0.00,South,178,0.0,0.0,73,0.08,,---,0.24,VWS V14.01,2013-08-13 19:07:00,
2013-08-13 15:12:00,64.2,55.8,0.00,South,178,0.0,0.0,74,0.08,,---,0.24,VWS V14.01,2013-08-13 19:12:00,
2013-08-13 15:17:00,64.6,55.7,0.00,South,178,0.0,0.0,73,0.08,,---,0.24,VWS V14.01,2013-08-13 19:17:00,
2013-08-13 15:22:00,64.6,56.1,0.00,SSE,154,0.0,0.0,74,0.08,,---,0.24,VWS V14.01,2013-08-13 19:22:00,
2013-08-13 15:27:00,64.2,55.8,0.00,SSE,154,0.0,0.0,74,0.00,,---,0.24,VWS V14.01,2013-08-13 19:27:00,
2013-08-13 15:32:00,64.4,55.9,0.00,SSE,154,0.0,0.0,74,0.00,,---,0.24,VWS V14.01,2013-08-13 19:32:00,
2013-08-13 15:37:00,64.6,56.5,0.00,SE,144,0.0,0.0,75,0.00,,---,0.24,VWS V14.01,2013-08-13 19:37:00,
2013-08-13 15:42:00,64.8,56.7,0.00,SE,144,0.0,0.0,75,0.00,,---,0.24,VWS V14.01,2013-08-13 19:42:00,
2013-08-13 15:47:00,64.8,56.7,0.00,SE,144,0.0,0.0,75,0.00,,---,0.24,VWS V14.01,2013-08-13 19:47:00,
2013-08-13 15:52:00,64.8,56.7,0.00,SE,144,0.0,0.0,75,0.00,,---,0.24,VWS V14.01,2013-08-13 19:52:00,
2013-08-13 15:57:00,64.9,56.8,0.00,SE,144,0.0,0.0,75,0.00,,---,0.24,VWS V14.01,2013-08-13 19:57:00,
2013-08-13 16:02:00,65.1,57.4,0.00,SE,144,0.0,0.0,76,0.00,,---,0.24,VWS V14.01,2013-08-13 20:02:00,
2013-08-13 16:07:00,65.1,57.4,0.00,SE,144,0.0,0.0,76,0.00,,---,0.24,VWS V14.01,2013-08-13 20:07:00,
2013-08-13 16:12:00,65.1,57.4,0.00,SE,144,0.0,0.0,76,0.00,,---,0.24,VWS V14.01,2013-08-13 20:12:00,
2013-08-13 16:17:00,65.3,57.5,0.00,SE,144,0.0,0.0,76,0.00,,---,0.24,VWS V14.01,2013-08-13 20:17:00,
2013-08-13 16:22:00,65.5,57.7,0.00,SE,144,0.0,0.0,76,0.00,,---,0.24,VWS V14.01,2013-08-13 20:22:00,
2013-08-13 16:27:00,65.5,57.7,0.00,SE,144,0.0,0.0,76,0.00,,---,0.24,VWS V14.01,2013-08-13 20:27:00,
2013-08-13 16:32:00,65.5,57.7,0.00,SE,144,0.0,0.0,76,0.00,,---,0.24,VWS V14.01,2013-08-13 20:32:00,
2013-08-13 16:37:00,65.3,57.5,0.00,SE,144,0.0,0.0,76,0.00,,---,0.24,VWS V14.01,2013-08-13 20:37:00,
2013-08-13 16:42:00,65.3,57.5,0.00,SE,144,0.0,0.0,76,0.00,,---,0.24,VWS V14.01,2013-08-13 20:42:00,
2013-08-13 16:47:00,65.5,58.1,0.00,SE,144,0.0,0.0,77,0.00,,---,0.24,VWS V14.01,2013-08-13 20:47:00,
2013-08-13 16:52:00,65.7,58.3,0.00,SE,144,0.0,0.0,77,0.00,,---,0.24,VWS V14.01,2013-08-13 20:52:00,
2013-08-13 16:57:00,65.7,58.3,0.00,SE,144,0.0,0.0,77,0.00,,---,0.24,VWS V14.01,2013-08-13 20:57:00,
2013-08-13 17:02:00,65.5,58.1,0.00,SE,144,0.0,0.0,77,0.00,,---,0.24,VWS V14.01,2013-08-13 21:02:00,
2013-08-13 17:07:00,65.3,57.9,0.00,SE,144,0.0,0.0,77,0.00,,---,0.24,VWS V14.01,2013-08-13 21:07:00,
2013-08-13 17:12:00,65.3,57.9,0.00,SE,144,0.0,0.0,77,0.00,,---,0.24,VWS V14.01,2013-08-13 21:12:00,
2013-08-13 17:17:00,65.1,57.4,0.00,SE,144,0.0,0.0,76,0.00,,---,0.24,VWS V14.01,2013-08-13 21:17:00,
2013-08-13 17:22:00,65.1,57.7,0.00,SE,144,0.0,0.0,77,0.00,,---,0.24,VWS V14.01,2013-08-13 21:22:00,
2013-08-13 17:27:00,64.9,57.6,0.00,SE,144,0.0,0.0,77,0.00,,---,0.24,VWS V14.01,2013-08-13 21:27:00,
2013-08-13 17:32:00,64.9,57.6,0.00,SE,144,0.0,0.0,77,0.00,,---,0.24,VWS V14.01,2013-08-13 21:32:00,
2013-08-13 17:37:00,64.9,57.6,0.00,SE,144,0.0,0.0,77,0.00,,---,0.24,VWS V14.01,2013-08-13 21:37:00,
2013-08-13 17:42:00,64.9,57.6,0.00,SE,144,0.0,0.0,77,0.00,,---,0.24,VWS V14.01,2013-08-13 21:42:00,
2013-08-13 17:47:00,64.6,57.6,0.00,SE,144,0.0,0.0,78,0.00,,---,0.24,VWS V14.01,2013-08-13 21:47:00,
2013-08-13 17:52:00,64.6,57.6,0.00,SE,144,0.0,0.0,78,0.00,,---,0.24,VWS V14.01,2013-08-13 21:52:00,
2013-08-13 17:57:00,64.8,57.8,0.00,SE,144,0.0,0.0,78,0.00,,---,0.24,VWS V14.01,2013-08-13 21:57:00,
2013-08-13 18:02:00,64.6,57.6,0.00,SE,144,0.0,0.0,78,0.00,,---,0.24,VWS V14.01,2013-08-13 22:02:00,
2013-08-13 18:03:00,64.6,57.6,0.00,SE,144,0.0,0.0,78,0.00,,---,0.24,VWS V14.01,2013-08-13 22:03:00,
2013-08-13 18:08:00,64.8,58.1,0.00,SE,144,0.0,0.0,79,0.00,,---,0.24,VWS V14.01,2013-08-13 22:08:00,
2013-08-13 18:13:00,64.6,57.9,0.00,SE,144,0.0,0.0,79,0.00,,---,0.24,VWS V14.01,2013-08-13 22:13:00,
2013-08-13 18:18:00,64.6,57.9,0.00,SE,144,0.0,0.0,79,0.00,,---,0.24,VWS V14.01,2013-08-13 22:18:00,
2013-08-13 18:23:00,64.8,58.1,0.00,SE,144,0.0,0.0,79,0.00,,---,0.24,VWS V14.01,2013-08-13 22:23:00,
2013-08-13 18:28:00,64.8,58.5,0.00,SE,144,0.0,0.0,80,0.00,,---,0.24,VWS V14.01,2013-08-13 22:28:00,
2013-08-13 18:33:00,64.8,58.5,0.00,SE,143,0.0,0.0,80,0.00,,---,0.24,VWS V14.01,2013-08-13 22:33:00,
2013-08-13 18:38:00,64.9,58.6,0.00,SE,143,0.0,0.0,80,0.00,,---,0.24,VWS V14.01,2013-08-13 22:38:00,
2013-08-13 18:43:00,64.9,58.6,0.00,SE,143,0.0,0.0,80,0.00,,---,0.24,VWS V14.01,2013-08-13 22:43:00,
2013-08-13 18:48:00,65.1,58.8,0.00,SE,143,0.0,0.0,80,0.00,,---,0.24,VWS V14.01,2013-08-13 22:48:00,
2013-08-13 18:53:00,64.9,58.6,0.00,SE,143,0.0,0.0,80,0.00,,---,0.24,VWS V14.01,2013-08-13 22:53:00,
2013-08-13 18:58:00,64.9,58.6,0.00,SE,143,0.0,0.0,80,0.00,,---,0.24,VWS V14.01,2013-08-13 22:58:00,
2013-08-13 19:03:00,64.9,58.6,0.00,SE,143,0.0,0.0,80,0.00,,---,0.24,VWS V14.01,2013-08-13 23:03:00,
2013-08-13 19:08:00,64.8,58.5,0.00,SSE,159,0.0,0.0,80,0.00,,---,0.24,VWS V14.01,2013-08-13 23:08:00,
2013-08-13 19:13:00,64.6,58.3,0.00,SE,133,0.0,0.0,80,0.00,,---,0.24,VWS V14.01,2013-08-13 23:13:00,
2013-08-13 19:18:00,64.6,58.3,0.00,SE,131,0.0,0.0,80,0.00,,---,0.24,VWS V14.01,2013-08-13 23:18:00,
2013-08-13 19:23:00,64.4,58.1,0.00,SSE,153,0.0,0.0,80,0.00,,---,0.24,VWS V14.01,2013-08-13 23:23:00,
2013-08-13 19:28:00,64.2,57.9,0.00,SSE,153,0.0,0.0,80,0.00,,---,0.24,VWS V14.01,2013-08-13 23:28:00,
2013-08-13 19:33:00,64.0,57.8,0.00,SSE,153,0.0,0.0,80,0.00,,---,0.24,VWS V14.01,2013-08-13 23:33:00,
2013-08-13 19:38:00,63.9,57.6,0.00,SSE,153,0.0,0.0,80,0.00,,---,0.24,VWS V14.01,2013-08-13 23:38:00,
2013-08-13 19:43:00,63.9,57.6,0.00,SSE,153,0.0,0.0,80,0.00,,---,0.24,VWS V14.01,2013-08-13 23:43:00,
2013-08-13 19:48:00,63.5,57.2,0.00,SSE,153,0.0,0.0,80,0.00,,---,0.24,VWS V14.01,2013-08-13 23:48:00,
2013-08-13 19:53:00,63.3,57.0,0.00,SSE,153,0.0,0.0,80,0.00,,---,0.24,VWS V14.01,2013-08-13 23:53:00,
2013-08-13 19:58:00,63.0,56.7,0.00,SSE,153,0.0,0.0,80,0.00,,---,0.24,VWS V14.01,2013-08-13 23:58:00,
2013-08-13 20:03:00,63.0,56.7,0.00,SSE,153,0.0,0.0,80,0.00,,---,0.24,VWS V14.01,2013-08-14 00:03:00,
2013-08-13 20:08:00,62.6,56.3,0.00,SSE,153,0.0,0.0,80,0.00,,---,0.24,VWS V14.01,2013-08-14 00:08:00,
2013-08-13 20:13:00,62.2,56.0,0.00,SSE,153,0.0,0.0,80,0.00,,---,0.24,VWS V14.01,2013-08-14 00:13:00,
2013-08-13 20:18:00,62.1,55.8,0.00,SSE,153,0.0,0.0,80,0.00,,---,0.24,VWS V14.01,2013-08-14 00:18:00,
2013-08-13 20:23:00,62.1,55.8,0.00,SSE,153,0.0,0.0,80,0.00,,---,0.24,VWS V14.01,2013-08-14 00:23:00,
2013-08-13 20:28:00,61.9,55.7,0.00,SSE,153,0.0,0.0,80,0.00,,---,0.24,VWS V14.01,2013-08-14 00:28:00,
2013-08-13 20:33:00,61.7,55.5,0.00,SSE,153,0.0,0.0,80,0.00,,---,0.24,VWS V14.01,2013-08-14 00:33:00,
2013-08-13 20:38:00,61.5,55.3,0.00,SSE,153,0.0,0.0,80,0.00,,---,0.24,VWS V14.01,2013-08-14 00:38:00,
2013-08-13 20:43:00,61.5,55.3,0.00,SSE,153,0.0,0.0,80,0.00,,---,0.24,VWS V14.01,2013-08-14 00:43:00,
2013-08-13 20:48:00,61.3,55.1,0.00,SSE,153,0.0,0.0,80,0.00,,---,0.24,VWS V14.01,2013-08-14 00:48:00,
2013-08-13 20:53:00,61.3,55.1,0.00,SSE,153,0.0,0.0,80,0.00,,---,0.24,VWS V14.01,2013-08-14 00:53:00,
2013-08-13 20:58:00,61.3,55.5,0.00,SSE,153,0.0,0.0,81,0.00,,---,0.24,VWS V14.01,2013-08-14 00:58:00,
2013-08-13 21:03:00,61.3,55.5,0.00,SSE,153,0.0,0.0,81,0.00,,---,0.24,VWS V14.01,2013-08-14 01:03:00,
2013-08-13 21:08:00,61.3,55.5,0.00,SSE,153,0.0,0.0,81,0.00,,---,0.24,VWS V14.01,2013-08-14 01:08:00,
2013-08-13 21:13:00,61.2,55.0,0.00,SSE,153,0.0,0.0,80,0.00,,---,0.24,VWS V14.01,2013-08-14 01:13:00,
2013-08-13 21:18:00,61.2,55.3,0.00,SSE,153,0.0,0.0,81,0.00,,---,0.24,VWS V14.01,2013-08-14 01:18:00,
2013-08-13 21:23:00,61.2,55.0,0.00,SSE,153,0.0,0.0,80,0.00,,---,0.24,VWS V14.01,2013-08-14 01:23:00,
2013-08-13 21:28:00,61.2,55.3,0.00,SSE,153,0.0,0.0,81,0.00,,---,0.24,VWS V14.01,2013-08-14 01:28:00,
2013-08-13 21:33:00,61.2,55.3,0.00,SSE,153,0.0,0.0,81,0.00,,---,0.24,VWS V14.01,2013-08-14 01:33:00,
2013-08-13 21:38:00,61.0,55.1,0.00,SSE,153,0.0,0.0,81,0.00,,---,0.24,VWS V14.01,2013-08-14 01:38:00,
2013-08-13 21:43:00,61.0,55.1,0.00,SSE,153,0.0,0.0,81,0.00,,---,0.24,VWS V14.01,2013-08-14 01:43:00,
2013-08-13 21:48:00,61.0,55.1,0.00,SSE,153,0.0,0.0,81,0.00,,---,0.24,VWS V14.01,2013-08-14 01:48:00,
2013-08-13 21:53:00,61.2,55.3,0.00,SSE,153,0.0,0.0,81,0.00,,---,0.24,VWS V14.01,2013-08-14 01:53:00,
2013-08-13 21:58:00,61.2,55.3,0.00,SSE,153,0.0,0.0,81,0.00,,---,0.24,VWS V14.01,2013-08-14 01:58:00,
2013-08-13 22:03:00,61.2,55.3,0.00,SSE,153,0.0,0.0,81,0.00,,---,0.24,VWS V14.01,2013-08-14 02:03:00,
2013-08-13 22:08:00,61.2,55.3,0.00,SW,232,0.0,0.0,81,0.00,,---,0.24,VWS V14.01,2013-08-14 02:08:00,
2013-08-13 22:13:00,61.5,56.0,0.00,SW,232,0.0,0.0,82,0.00,,---,0.24,VWS V14.01,2013-08-14 02:13:00,
2013-08-13 22:18:00,61.9,56.3,0.00,South,169,3.6,3.6,82,0.00,,---,0.24,VWS V14.01,2013-08-14 02:18:00,
2013-08-13 22:23:00,61.9,56.3,0.00,South,169,3.6,3.6,82,0.00,,---,0.24,VWS V14.01,2013-08-14 02:23:00,
2013-08-13 22:28:00,62.1,56.5,0.00,East,83,0.0,0.0,82,0.00,,---,0.24,VWS V14.01,2013-08-14 02:28:00,
2013-08-13 22:33:00,62.1,56.5,0.00,East,82,0.0,0.0,82,0.00,,---,0.24,VWS V14.01,2013-08-14 02:33:00,
2013-08-13 22:38:00,62.1,56.5,0.00,East,82,0.0,0.0,82,0.00,,---,0.24,VWS V14.01,2013-08-14 02:38:00,
2013-08-13 22:43:00,62.1,56.5,0.00,WNW,289,0.0,0.0,82,0.00,,---,0.24,VWS V14.01,2013-08-14 02:43:00,
2013-08-13 22:48:00,61.9,56.3,0.00,West,281,0.0,0.0,82,0.00,,---,0.24,VWS V14.01,2013-08-14 02:48:00,
2013-08-13 22:53:00,61.9,56.3,0.00,West,275,0.0,0.0,82,0.00,,---,0.24,VWS V14.01,2013-08-14 02:53:00,
2013-08-13 22:58:00,61.7,55.8,0.00,ESE,115,0.0,0.0,81,0.00,,---,0.24,VWS V14.01,2013-08-14 02:58:00,
2013-08-13 23:03:00,61.5,55.6,0.00,ESE,104,3.6,3.6,81,0.00,,---,0.24,VWS V14.01,2013-08-14 03:03:00,
2013-08-13 23:08:00,61.2,55.3,0.00,ENE,60,0.0,0.0,81,0.00,,---,0.24,VWS V14.01,2013-08-14 03:08:00,
2013-08-13 23:13:00,61.0,54.8,0.00,ENE,60,0.0,0.0,80,0.00,,---,0.24,VWS V14.01,2013-08-14 03:13:00,
2013-08-13 23:18:00,60.6,54.4,0.00,SE,130,0.0,0.0,80,0.00,,---,0.24,VWS V14.01,2013-08-14 03:18:00,
2013-08-13 23:23:00,60.4,53.9,0.00,WNW,291,0.0,0.0,79,0.00,,---,0.24,VWS V14.01,2013-08-14 03:23:00,
2013-08-13 23:28:00,60.4,53.9,0.00,WNW,291,0.0,0.0,79,0.00,,---,0.24,VWS V14.01,2013-08-14 03:28:00,
2013-08-13 23:33:00,60.3,53.4,0.00,South,172,0.0,2.2,78,0.00,,---,0.24,VWS V14.01,2013-08-14 03:33:00,
2013-08-13 23:38:00,60.1,53.2,0.00,South,172,0.0,0.0,78,0.00,,---,0.24,VWS V14.01,2013-08-14 03:38:00,
2013-08-13 23:43:00,60.1,53.2,0.00,South,172,0.0,0.0,78,0.00,,---,0.24,VWS V14.01,2013-08-14 03:43:00,
2013-08-13 23:48:00,59.7,52.5,0.00,SSE,163,3.6,3.6,77,0.00,,---,0.24,VWS V14.01,2013-08-14 03:48:00,
2013-08-13 23:53:00,59.5,52.3,0.00,ESE,120,0.0,0.0,77,0.00,,---,0.00,VWS V14.01,2013-08-14 03:53:00,
2013-08-13 23:58:00,59.2,51.6,0.00,SSW,211,0.0,0.0,76,0.00,,---,0.00,VWS V14.01,2013-08-14 03:58:00,